createdAt,value
2018-08-06T00:00:29.756Z,51.00
2018-08-06T00:02:59.368Z,51.10
2018-08-06T00:05:29.493Z,51.80
2018-08-06T00:07:59.885Z,51.60
2018-08-06T00:10:29.605Z,51.80
2018-08-06T00:12:59.191Z,51.60
2018-08-06T00:15:28.958Z,52.10
2018-08-06T00:17:58.506Z,52.10
2018-08-06T00:20:28.145Z,52.40
2018-08-06T00:22:57.638Z,52.50
2018-08-06T00:25:27.201Z,52.40
2018-08-06T00:27:56.744Z,52.70
2018-08-06T00:30:26.253Z,53.00
2018-08-06T00:32:55.934Z,53.30
2018-08-06T00:35:25.512Z,54.00
2018-08-06T00:37:55.073Z,53.30
2018-08-06T00:40:24.654Z,53.30
2018-08-06T00:42:54.174Z,53.30
2018-08-06T00:45:23.826Z,53.80
2018-08-06T00:47:53.338Z,53.30
2018-08-06T00:52:51.968Z,53.20
2018-08-06T00:55:21.643Z,53.50
2018-08-06T00:57:51.146Z,53.90
2018-08-06T01:00:21.159Z,53.80
2018-08-06T01:02:50.671Z,54.00
2018-08-06T01:05:20.370Z,54.00
2018-08-06T01:07:49.982Z,54.00
2018-08-06T01:10:19.904Z,54.50
2018-08-06T01:12:49.493Z,54.60
2018-08-06T01:15:19.413Z,55.00
2018-08-06T01:17:49.016Z,55.10
2018-08-06T01:20:18.628Z,55.30
2018-08-06T01:22:48.266Z,55.40
2018-08-06T01:25:17.833Z,55.40
2018-08-06T01:27:47.341Z,55.80
2018-08-06T01:32:45.882Z,57.40
2018-08-06T01:35:15.411Z,57.80
2018-08-06T01:37:44.994Z,56.80
2018-08-06T01:40:15.510Z,57.10
2018-08-06T01:42:45.195Z,56.90
2018-08-06T01:45:16.202Z,57.10
2018-08-06T01:47:46.026Z,57.20
2018-08-06T01:50:16.334Z,57.30
2018-08-06T01:52:45.864Z,57.40
2018-08-06T01:55:15.428Z,57.50
2018-08-06T01:57:44.976Z,57.50
2018-08-06T02:00:16.508Z,57.50
2018-08-06T02:02:46.068Z,57.70
2018-08-06T02:05:15.610Z,57.80
2018-08-06T02:07:45.180Z,58.30
2018-08-06T02:10:15.709Z,58.40
2018-08-06T02:12:45.637Z,58.80
2018-08-06T02:15:15.339Z,58.30
2018-08-06T02:17:45.070Z,58.80
2018-08-06T02:22:45.798Z,59.30
2018-08-06T02:25:15.513Z,58.80
2018-08-06T02:27:45.246Z,59.10
2018-08-06T02:30:15.685Z,59.10
2018-08-06T02:32:45.343Z,59.10
2018-08-06T02:35:15.909Z,59.30
2018-08-06T02:37:45.623Z,59.40
2018-08-06T02:40:17.379Z,59.30
2018-08-06T02:42:47.169Z,59.80
2018-08-06T02:45:17.218Z,59.30
2018-08-06T02:47:46.932Z,59.40
2018-08-06T02:50:16.522Z,59.30
2018-08-06T02:52:46.193Z,59.30
2018-08-06T02:57:45.578Z,59.40
2018-08-06T03:00:16.815Z,59.50
2018-08-06T03:02:47.268Z,59.30
2018-08-06T03:05:18.801Z,59.40
2018-08-06T03:07:48.448Z,59.20
2018-08-06T03:10:18.244Z,59.60
2018-08-06T03:15:17.159Z,59.60
2018-08-06T03:17:46.778Z,59.30
2018-08-06T03:20:16.327Z,59.50
2018-08-06T03:22:45.969Z,59.20
2018-08-06T03:25:16.670Z,59.50
2018-08-06T03:27:46.439Z,59.70
2018-08-06T03:30:17.303Z,59.30
2018-08-06T03:32:47.921Z,59.30
2018-08-06T03:35:17.713Z,59.10
2018-08-06T03:37:47.314Z,59.20
2018-08-06T03:40:16.956Z,59.50
2018-08-06T03:42:46.545Z,59.10
2018-08-06T03:45:16.128Z,59.10
2018-08-06T03:47:45.654Z,58.90
2018-08-06T03:50:15.280Z,58.80
2018-08-06T03:52:45.033Z,58.80
2018-08-06T03:55:14.647Z,59.00
2018-08-06T03:57:44.196Z,58.70
2018-08-06T04:00:14.835Z,58.60
2018-08-06T04:02:44.911Z,58.80
2018-08-06T04:05:15.734Z,58.60
2018-08-06T04:07:45.351Z,58.60
2018-08-06T04:12:45.646Z,59.20
2018-08-06T04:15:15.414Z,58.50
2018-08-06T04:17:45.021Z,58.80
2018-08-06T04:20:14.716Z,58.30
2018-08-06T04:22:44.677Z,58.30
2018-08-06T04:25:14.348Z,58.20
2018-08-06T04:27:43.901Z,58.20
2018-08-06T04:30:15.072Z,58.20
2018-08-06T04:35:15.077Z,58.00
2018-08-06T04:37:45.225Z,57.90
2018-08-06T04:40:14.886Z,57.90
2018-08-06T04:42:44.514Z,57.90
2018-08-06T04:45:14.181Z,57.80
2018-08-06T04:47:43.940Z,57.60
2018-08-06T04:50:14.707Z,57.60
2018-08-06T04:52:45.542Z,57.70
2018-08-06T04:55:15.883Z,57.70
2018-08-06T04:57:45.500Z,57.70
2018-08-06T05:02:45.068Z,57.70
2018-08-06T05:05:14.660Z,57.70
2018-08-06T05:07:44.776Z,58.00
2018-08-06T05:10:14.556Z,57.90
2018-08-06T05:12:44.149Z,58.00
2018-08-06T05:15:13.725Z,58.00
2018-08-06T05:17:43.416Z,57.80
2018-08-06T05:20:12.984Z,57.80
2018-08-06T05:22:42.545Z,57.80
2018-08-06T05:25:12.080Z,57.80
2018-08-06T05:27:41.718Z,57.50
2018-08-06T05:30:12.968Z,57.50
2018-08-06T05:32:42.739Z,57.20
2018-08-06T05:35:12.308Z,57.10
2018-08-06T05:37:41.840Z,57.10
2018-08-06T05:40:11.516Z,56.70
2018-08-06T05:42:41.081Z,56.50
2018-08-06T05:45:11.487Z,56.30
2018-08-06T05:47:41.044Z,56.20
2018-08-06T05:50:12.695Z,56.10
2018-08-06T05:52:42.731Z,56.10
2018-08-06T05:55:12.418Z,56.00
2018-08-06T05:57:42.511Z,55.20
2018-08-06T06:00:15.443Z,55.60
2018-08-06T06:02:45.693Z,55.50
2018-08-06T06:05:15.305Z,55.40
2018-08-06T06:10:15.161Z,55.40
2018-08-06T06:15:15.652Z,55.30
2018-08-06T06:17:45.281Z,55.20
2018-08-06T06:20:15.025Z,55.40
2018-08-06T06:22:45.355Z,54.90
2018-08-06T06:25:14.963Z,54.70
2018-08-06T06:27:45.132Z,54.20
2018-08-06T06:30:17.025Z,53.80
2018-08-06T06:32:47.144Z,53.70
2018-08-06T06:35:16.737Z,53.80
2018-08-06T06:37:46.423Z,53.80
2018-08-06T06:40:16.312Z,54.30
2018-08-06T06:42:45.939Z,53.40
2018-08-06T06:45:15.680Z,53.20
2018-08-06T06:47:45.310Z,52.70
2018-08-06T06:50:14.922Z,52.70
2018-08-06T06:52:44.757Z,52.30
2018-08-06T06:55:14.428Z,52.20
2018-08-06T06:57:46.500Z,52.80
2018-08-06T07:00:16.563Z,52.00
2018-08-06T07:02:46.097Z,51.60
2018-08-06T07:05:16.963Z,51.80
2018-08-06T07:07:48.000Z,51.90
2018-08-06T07:10:17.768Z,51.60
2018-08-06T07:12:47.995Z,51.60
2018-08-06T07:15:18.142Z,51.70
2018-08-06T07:17:49.944Z,50.70
2018-08-06T07:20:21.108Z,50.50
2018-08-06T07:22:50.750Z,50.40
2018-08-06T07:25:21.495Z,50.00
2018-08-06T07:27:51.173Z,49.80
2018-08-06T07:30:22.397Z,49.60
2018-08-06T07:32:51.888Z,48.80
2018-08-06T07:35:23.578Z,48.70
2018-08-06T07:37:54.477Z,48.40
2018-08-06T07:40:24.417Z,48.10
2018-08-06T07:42:56.270Z,47.90
2018-08-06T07:45:26.174Z,47.00
2018-08-06T07:47:56.183Z,45.30
2018-08-06T07:50:27.280Z,45.50
2018-08-06T07:52:56.949Z,45.90
2018-08-06T07:55:26.437Z,46.20
2018-08-06T07:57:56.064Z,45.50
2018-08-06T08:00:25.703Z,45.60
2018-08-06T08:02:55.805Z,44.10
2018-08-06T08:05:25.499Z,44.60
2018-08-06T08:07:55.075Z,44.50
2018-08-06T08:10:25.936Z,44.20
2018-08-06T08:12:55.574Z,43.90
2018-08-06T08:15:26.348Z,44.10
2018-08-06T08:17:57.148Z,44.10
2018-08-06T08:20:27.473Z,43.80
2018-08-06T08:22:57.200Z,43.30
2018-08-06T08:25:26.787Z,43.10
2018-08-06T08:27:57.408Z,42.70
2018-08-06T08:30:27.034Z,43.10
2018-08-06T08:32:56.956Z,42.20
2018-08-06T08:35:32.938Z,42.50
2018-08-06T08:38:02.442Z,41.40
2018-08-06T08:40:32.132Z,41.40
2018-08-06T08:43:01.768Z,41.50
2018-08-06T08:48:02.042Z,41.60
2018-08-06T08:50:31.705Z,40.10
2018-08-06T08:53:02.260Z,40.70
2018-08-06T08:55:32.833Z,40.50
2018-08-06T08:58:03.376Z,40.50
2018-08-06T09:00:33.856Z,40.30
2018-08-06T09:03:05.719Z,40.30
2018-08-06T09:05:35.717Z,38.50
2018-08-06T09:08:07.281Z,38.30
2018-08-06T09:10:40.264Z,39.10
2018-08-06T09:13:14.880Z,39.20
2018-08-06T09:15:45.138Z,39.20
2018-08-06T09:18:14.897Z,37.90
2018-08-06T09:20:44.604Z,38.40
2018-08-06T09:23:14.136Z,37.70
2018-08-06T09:25:43.718Z,37.50
2018-08-06T09:28:13.249Z,37.20
2018-08-06T09:30:42.882Z,37.70
2018-08-06T09:33:12.465Z,37.40
2018-08-06T09:35:42.336Z,37.50
2018-08-06T09:38:11.826Z,37.50
2018-08-06T09:40:41.480Z,37.50
2018-08-06T09:43:10.918Z,37.20
2018-08-06T09:45:40.583Z,36.50
2018-08-06T09:48:10.216Z,37.10
2018-08-06T09:50:40.187Z,36.50
2018-08-06T09:53:09.894Z,37.00
2018-08-06T09:55:39.506Z,36.60
2018-08-06T09:58:09.027Z,36.70
2018-08-06T10:00:40.369Z,36.20
2018-08-06T10:03:09.961Z,36.30
2018-08-06T10:05:39.613Z,35.90
2018-08-06T10:08:09.205Z,36.10
2018-08-06T10:10:38.713Z,34.40
2018-08-06T10:13:08.327Z,34.20
2018-08-06T10:15:37.843Z,35.00
2018-08-06T10:18:07.582Z,35.50
2018-08-06T10:20:37.699Z,34.50
2018-08-06T10:23:07.224Z,33.70
2018-08-06T10:25:37.004Z,34.70
2018-08-06T10:28:06.565Z,34.90
2018-08-06T10:30:36.207Z,34.20
2018-08-06T10:33:05.731Z,34.50
2018-08-06T10:35:35.351Z,33.70
2018-08-06T10:38:04.980Z,34.60
2018-08-06T10:40:34.497Z,34.90
2018-08-06T10:43:04.099Z,34.50
2018-08-06T10:45:34.132Z,34.70
2018-08-06T10:48:03.733Z,33.50
2018-08-06T10:50:33.288Z,33.30
2018-08-06T10:53:02.875Z,33.70
2018-08-06T10:55:32.413Z,34.00
2018-08-06T10:58:02.021Z,33.50
2018-08-06T11:00:31.546Z,33.00
2018-08-06T11:03:01.200Z,32.80
2018-08-06T11:05:30.735Z,32.10
2018-08-06T11:08:00.203Z,32.10
2018-08-06T11:10:29.722Z,32.10
2018-08-06T11:12:59.344Z,31.90
2018-08-06T11:15:28.946Z,32.50
2018-08-06T11:17:58.559Z,32.20
2018-08-06T11:20:28.064Z,32.20
2018-08-06T11:22:57.616Z,32.10
2018-08-06T11:25:27.095Z,32.60
2018-08-06T11:27:56.801Z,32.60
2018-08-06T11:30:26.376Z,32.60
2018-08-06T11:32:55.990Z,31.40
2018-08-06T11:35:25.495Z,31.00
2018-08-06T11:37:54.958Z,30.90
2018-08-06T11:40:24.541Z,30.40
2018-08-06T11:42:54.179Z,30.30
2018-08-06T11:45:23.978Z,30.80
2018-08-06T11:47:53.590Z,30.60
2018-08-06T11:50:23.088Z,30.30
2018-08-06T11:52:52.610Z,30.50
2018-08-06T11:57:51.228Z,29.80
2018-08-06T12:00:22.522Z,30.30
2018-08-06T12:02:52.022Z,30.00
2018-08-06T12:05:21.526Z,30.50
2018-08-06T12:07:51.079Z,29.90
2018-08-06T12:10:20.627Z,29.50
2018-08-06T12:12:50.605Z,29.60
2018-08-06T12:15:20.367Z,29.80
2018-08-06T12:17:49.949Z,29.90
2018-08-06T12:20:20.574Z,30.30
2018-08-06T12:22:51.289Z,29.70
2018-08-06T12:25:20.833Z,29.90
2018-08-06T12:27:50.532Z,29.70
2018-08-06T12:30:22.320Z,29.60
2018-08-06T12:32:52.760Z,29.90
2018-08-06T12:35:22.334Z,29.90
2018-08-06T12:37:51.965Z,30.00
2018-08-06T12:40:22.550Z,30.10
2018-08-06T12:42:52.182Z,29.70
2018-08-06T12:45:21.666Z,29.60
2018-08-06T12:50:20.092Z,29.50
2018-08-06T12:52:49.575Z,29.10
2018-08-06T12:55:19.310Z,29.10
2018-08-06T12:57:48.714Z,29.10
2018-08-06T13:00:25.540Z,29.00
2018-08-06T13:02:55.458Z,29.00
2018-08-06T13:05:25.404Z,29.40
2018-08-06T13:07:54.923Z,29.00
2018-08-06T13:10:24.386Z,29.10
2018-08-06T13:12:53.904Z,28.30
2018-08-06T13:15:23.502Z,28.30
2018-08-06T13:17:53.071Z,28.20
2018-08-06T13:20:22.558Z,28.40
2018-08-06T13:22:52.314Z,27.90
2018-08-06T13:25:21.913Z,28.00
2018-08-06T13:27:51.356Z,28.00
2018-08-06T13:30:20.965Z,27.90
2018-08-06T13:32:50.512Z,27.60
2018-08-06T13:35:20.038Z,27.60
2018-08-06T13:37:49.580Z,27.40
2018-08-06T13:40:19.105Z,27.10
2018-08-06T13:42:48.592Z,27.10
2018-08-06T13:45:18.135Z,27.50
2018-08-06T13:47:47.636Z,27.40
2018-08-06T13:50:17.256Z,27.40
2018-08-06T13:55:15.824Z,26.60
2018-08-06T13:57:45.498Z,26.30
2018-08-06T14:00:16.908Z,25.80
2018-08-06T14:02:46.629Z,26.10
2018-08-06T14:05:17.245Z,25.30
2018-08-06T14:10:17.320Z,25.50
2018-08-06T14:12:46.993Z,25.70
2018-08-06T14:15:16.546Z,26.20
2018-08-06T14:17:46.127Z,25.60
2018-08-06T14:20:17.089Z,26.30
2018-08-06T14:22:46.606Z,26.00
2018-08-06T14:25:16.202Z,25.50
2018-08-06T14:27:45.744Z,25.10
2018-08-06T14:30:16.306Z,25.50
2018-08-06T14:32:46.231Z,25.60
2018-08-06T14:35:16.301Z,26.20
2018-08-06T14:37:45.896Z,25.50
2018-08-06T14:40:17.059Z,25.40
2018-08-06T14:42:46.864Z,26.00
2018-08-06T14:45:16.537Z,25.60
2018-08-06T14:47:46.061Z,26.10
2018-08-06T14:50:16.061Z,26.30
2018-08-06T14:52:45.645Z,26.40
2018-08-06T14:55:15.228Z,26.60
2018-08-06T14:57:44.903Z,26.80
2018-08-06T15:00:19.060Z,27.00
2018-08-06T15:02:49.362Z,27.00
2018-08-06T15:05:18.922Z,26.80
2018-08-06T15:07:48.615Z,27.50
2018-08-06T15:10:18.185Z,26.90
2018-08-06T15:12:47.748Z,26.70
2018-08-06T15:15:18.148Z,26.70
2018-08-06T15:17:47.873Z,26.40
2018-08-06T15:20:18.741Z,26.40
2018-08-06T15:22:48.586Z,26.20
2018-08-06T15:25:21.451Z,26.50
2018-08-06T15:30:20.256Z,26.70
2018-08-06T15:32:49.929Z,26.80
2018-08-06T15:35:19.594Z,27.10
2018-08-06T15:37:49.270Z,27.40
2018-08-06T15:40:20.008Z,27.80
2018-08-06T15:42:49.720Z,27.90
2018-08-06T15:45:19.315Z,27.90
2018-08-06T15:47:48.844Z,27.90
2018-08-06T15:50:20.262Z,27.90
2018-08-06T15:52:49.988Z,27.90
2018-08-06T15:55:19.617Z,27.80
2018-08-06T15:57:49.213Z,27.80
2018-08-06T16:00:19.741Z,27.80
2018-08-06T16:02:49.430Z,27.80
2018-08-06T16:10:47.740Z,27.70
2018-08-06T16:13:17.292Z,27.90
2018-08-06T16:15:46.824Z,28.10
2018-08-06T16:18:16.740Z,28.20
2018-08-06T16:20:46.207Z,28.20
2018-08-06T16:23:15.673Z,28.50
2018-08-06T16:25:45.242Z,28.60
2018-08-06T16:28:14.973Z,28.70
2018-08-06T16:30:44.542Z,28.70
2018-08-06T16:33:15.265Z,28.90
2018-08-06T16:35:44.928Z,28.90
2018-08-06T16:40:43.631Z,29.10
2018-08-06T16:43:13.351Z,29.10
2018-08-06T16:45:42.961Z,29.20
2018-08-06T16:48:12.569Z,29.40
2018-08-06T16:50:42.191Z,29.30
2018-08-06T16:53:11.922Z,29.40
2018-08-06T16:55:41.595Z,29.40
2018-08-06T16:58:11.177Z,29.60
2018-08-06T17:00:40.742Z,29.70
2018-08-06T17:03:10.694Z,29.80
2018-08-06T17:05:40.781Z,30.00
2018-08-06T17:08:10.514Z,30.00
2018-08-06T17:10:40.021Z,30.20
2018-08-06T17:13:09.671Z,30.40
2018-08-06T17:15:39.246Z,30.30
2018-08-06T17:18:08.785Z,30.50
2018-08-06T17:20:38.338Z,30.80
2018-08-06T17:23:08.052Z,30.80
2018-08-06T17:25:37.573Z,30.90
2018-08-06T17:28:07.185Z,31.20
2018-08-06T17:30:36.785Z,31.10
2018-08-06T17:33:06.590Z,31.10
2018-08-06T17:35:37.108Z,31.10
2018-08-06T17:38:06.803Z,31.10
2018-08-06T17:40:36.417Z,31.10
2018-08-06T17:43:06.076Z,31.30
2018-08-06T17:45:36.101Z,31.50
2018-08-06T17:48:06.322Z,31.70
2018-08-06T17:50:35.999Z,31.80
2018-08-06T17:53:06.029Z,31.90
2018-08-06T17:55:35.691Z,32.00
2018-08-06T17:58:05.566Z,32.10
2018-08-06T18:00:35.155Z,32.10
2018-08-06T18:03:04.866Z,32.20
2018-08-06T18:05:34.516Z,32.40
2018-08-06T18:08:04.102Z,32.50
2018-08-06T18:10:33.749Z,32.60
2018-08-06T18:13:03.439Z,32.90
2018-08-06T18:15:33.067Z,33.00
2018-08-06T18:20:31.877Z,33.30
2018-08-06T18:23:02.120Z,33.50
2018-08-06T18:25:31.821Z,33.80
2018-08-06T18:28:01.534Z,33.90
2018-08-06T18:30:31.509Z,34.20
2018-08-06T18:33:01.371Z,34.40
2018-08-06T18:35:31.010Z,34.60
2018-08-06T18:38:00.640Z,34.80
2018-08-06T18:40:30.492Z,35.00
2018-08-06T18:43:01.092Z,35.10
2018-08-06T18:45:30.757Z,35.10
2018-08-06T18:48:00.434Z,35.40
2018-08-06T18:50:30.189Z,35.70
2018-08-06T18:52:59.840Z,35.70
2018-08-06T18:55:29.666Z,35.60
2018-08-06T18:57:59.527Z,35.50
2018-08-06T19:00:29.345Z,35.50
2018-08-06T19:02:58.960Z,36.00
2018-08-06T19:05:28.688Z,36.20
2018-08-06T19:07:58.285Z,36.00
2018-08-06T19:10:28.461Z,36.10
2018-08-06T19:13:03.341Z,36.10
2018-08-06T19:15:32.953Z,36.30
2018-08-06T19:18:07.791Z,36.30
2018-08-06T19:20:37.531Z,36.70
2018-08-06T19:25:36.282Z,37.00
2018-08-06T19:28:05.855Z,37.10
2018-08-06T19:30:40.743Z,37.10
2018-08-06T19:35:39.467Z,37.70
2018-08-06T19:38:09.129Z,38.00
2018-08-06T19:40:38.805Z,38.30
2018-08-06T19:43:14.644Z,38.60
2018-08-06T19:45:44.226Z,38.90
2018-08-06T19:48:13.868Z,39.20
2018-08-06T19:50:44.504Z,39.40
2018-08-06T19:53:14.164Z,39.60
2018-08-06T19:55:49.152Z,39.70
2018-08-06T19:58:18.877Z,39.80
2018-08-06T20:00:48.677Z,40.10
2018-08-06T20:03:18.392Z,40.10
2018-08-06T20:05:48.017Z,40.20
2018-08-06T20:08:17.651Z,40.60
2018-08-06T20:10:47.259Z,40.80
2018-08-06T20:15:46.111Z,40.40
2018-08-06T20:18:15.755Z,41.40
2018-08-06T20:20:45.356Z,41.30
2018-08-06T20:23:15.043Z,41.40
2018-08-06T20:25:44.620Z,41.30
2018-08-06T20:28:14.272Z,41.40
2018-08-06T20:30:43.837Z,41.90
2018-08-06T20:33:13.420Z,41.40
2018-08-06T20:35:43.136Z,41.50
2018-08-06T20:38:12.644Z,41.50
2018-08-06T20:40:42.256Z,41.50
2018-08-06T20:43:11.788Z,41.50
2018-08-06T20:45:41.376Z,41.80
2018-08-06T20:48:10.937Z,41.80
2018-08-06T20:53:09.567Z,41.90
2018-08-06T20:55:39.206Z,41.90
2018-08-06T21:00:37.872Z,42.00
2018-08-06T21:03:07.613Z,42.10
2018-08-06T21:05:37.214Z,42.30
2018-08-06T21:08:06.832Z,42.50
2018-08-06T21:10:36.335Z,42.40
2018-08-06T21:13:06.156Z,42.40
2018-08-06T21:15:35.694Z,42.50
2018-08-06T21:18:05.349Z,42.70
2018-08-06T21:23:04.102Z,43.10
2018-08-06T21:25:33.726Z,43.10
2018-08-06T21:28:03.342Z,43.30
2018-08-06T21:30:32.931Z,43.40
2018-08-06T21:33:02.459Z,43.50
2018-08-06T21:35:31.964Z,43.70
2018-08-06T21:38:01.576Z,43.80
2018-08-06T21:40:31.091Z,44.10
2018-08-06T21:43:00.686Z,44.20
2018-08-06T21:45:30.313Z,44.10
2018-08-06T21:47:59.916Z,44.00
2018-08-06T21:50:29.532Z,44.10
2018-08-06T21:52:59.125Z,44.10
2018-08-06T21:55:28.658Z,44.10
2018-08-06T21:57:58.268Z,44.00
2018-08-06T22:00:35.519Z,44.40
2018-08-06T22:03:07.931Z,44.70
2018-08-06T22:05:37.515Z,44.70
2018-08-06T22:08:07.152Z,45.70
2018-08-06T22:10:36.835Z,45.70
2018-08-06T22:13:06.997Z,46.00
2018-08-06T22:15:36.601Z,46.30
2018-08-06T22:18:06.928Z,47.20
2018-08-06T22:20:36.465Z,47.60
2018-08-06T22:23:06.121Z,47.90
2018-08-06T22:25:35.856Z,48.40
2018-08-06T22:28:06.092Z,48.50
2018-08-06T22:30:35.614Z,48.80
2018-08-06T22:33:05.594Z,48.80
2018-08-06T22:35:35.164Z,48.80
2018-08-06T22:38:04.746Z,49.80
2018-08-06T22:40:34.322Z,50.00
2018-08-06T22:43:03.923Z,50.40
2018-08-06T22:45:33.483Z,50.70
2018-08-06T22:48:02.987Z,51.20
2018-08-06T22:50:32.516Z,51.30
2018-08-06T22:53:02.036Z,51.50
2018-08-06T22:55:41.437Z,51.70
2018-08-06T22:58:10.950Z,52.40
2018-08-06T23:00:40.560Z,51.90
2018-08-06T23:03:10.092Z,52.00
2018-08-06T23:05:39.592Z,52.70
2018-08-06T23:08:09.292Z,52.70
2018-08-06T23:10:38.764Z,53.00
2018-08-06T23:13:08.426Z,52.90
2018-08-06T23:15:38.000Z,53.60
2018-08-06T23:18:07.644Z,53.60
2018-08-06T23:20:37.170Z,53.60
2018-08-06T23:23:06.850Z,53.60
2018-08-06T23:25:36.471Z,53.60
2018-08-06T23:28:06.083Z,53.70
2018-08-06T23:30:35.579Z,53.90
2018-08-06T23:33:05.407Z,54.40
2018-08-06T23:35:34.939Z,54.50
2018-08-06T23:38:04.514Z,54.60
2018-08-06T23:40:34.056Z,54.90
2018-08-06T23:43:03.599Z,55.20
2018-08-06T23:45:33.085Z,55.30
2018-08-06T23:48:02.644Z,55.40
2018-08-06T23:50:32.255Z,56.00
2018-08-06T23:53:01.804Z,56.20
2018-08-06T23:55:31.401Z,56.30
2018-08-06T23:58:02.036Z,56.50
